KHWY

Warrenton-Fauquier Airport

Warrenton, Virginia, USA
METAR KHWY 231155Z AUTO 00000KT 10SM CLR 04/03 A3010 RMK AO2 T00410027 10072 20020
Observed Flight Rules
Oct-23 @ 11:55 UTC (23 minutes ago) Visual Flight Rules
Visibility Clouds
10 miles
  • Clear skies
Temperatures Readings
Current 4°C / 39°F
Dewpoint 3°C / 37°F
Humidity 93%
Altimeter 30.1" Hg
Pressure 1019 hPa
Elevation 103
METAR KHWY 231155Z AUTO 00000KT 10SM CLR 04/03 A3010 RMK AO2 T00410027 10072 20020
Observed Flight Rules
Oct-23 @ 11:55 UTC
(23 minutes ago)
VFR
Clouds
  • Clear skies
Temperature Dewpoint
4°C / 39°F 3°C / 37°F
Humidity Altimeter Pressure
93% 30.1" Hg 1019 hPa